sensor_id;sensor_type;location;lat;lon;timestamp;P1;durP1;ratioP1;P2;durP2;ratioP2
7017;SDS011;3549;42.162;24.726;2023-07-13T00:00:17;22.77;;;15.73;;
7017;SDS011;3549;42.162;24.726;2023-07-13T00:02:43;22.00;;;16.50;;
7017;SDS011;3549;42.162;24.726;2023-07-13T00:05:08;21.47;;;16.73;;
7017;SDS011;3549;42.162;24.726;2023-07-13T00:07:35;26.55;;;18.15;;
7017;SDS011;3549;42.162;24.726;2023-07-13T00:10:02;31.53;;;19.53;;
7017;SDS011;3549;42.162;24.726;2023-07-13T00:12:29;27.90;;;19.20;;
7017;SDS011;3549;42.162;24.726;2023-07-13T00:15:01;26.20;;;19.23;;
7017;SDS011;3549;42.162;24.726;2023-07-13T00:17:31;26.05;;;18.08;;
7017;SDS011;3549;42.162;24.726;2023-07-13T00:19:56;29.10;;;19.70;;
7017;SDS011;3549;42.162;24.726;2023-07-13T00:22:23;26.40;;;18.83;;
7017;SDS011;3549;42.162;24.726;2023-07-13T00:24:51;22.80;;;17.93;;
7017;SDS011;3549;42.162;24.726;2023-07-13T00:27:23;23.33;;;17.77;;
7017;SDS011;3549;42.162;24.726;2023-07-13T00:29:51;24.38;;;17.55;;
7017;SDS011;3549;42.162;24.726;2023-07-13T00:32:17;26.53;;;17.70;;
7017;SDS011;3549;42.162;24.726;2023-07-13T00:34:43;24.93;;;17.90;;
7017;SDS011;3549;42.162;24.726;2023-07-13T00:37:08;30.02;;;17.75;;
7017;SDS011;3549;42.162;24.726;2023-07-13T00:39:34;24.13;;;17.85;;
7017;SDS011;3549;42.162;24.726;2023-07-13T00:42:00;25.75;;;18.17;;
7017;SDS011;3549;42.162;24.726;2023-07-13T00:44:26;30.13;;;17.15;;
7017;SDS011;3549;42.162;24.726;2023-07-13T00:46:52;28.80;;;17.38;;
7017;SDS011;3549;42.162;24.726;2023-07-13T00:49:19;21.83;;;17.10;;
7017;SDS011;3549;42.162;24.726;2023-07-13T00:52:05;29.83;;;17.83;;
7017;SDS011;3549;42.162;24.726;2023-07-13T00:54:34;20.98;;;16.23;;
7017;SDS011;3549;42.162;24.726;2023-07-13T00:57:04;22.33;;;16.47;;
7017;SDS011;3549;42.162;24.726;2023-07-13T00:59:33;19.70;;;16.27;;
7017;SDS011;3549;42.162;24.726;2023-07-13T01:02:01;20.57;;;16.40;;
7017;SDS011;3549;42.162;24.726;2023-07-13T01:04:28;21.60;;;15.77;;
7017;SDS011;3549;42.162;24.726;2023-07-13T01:06:53;21.35;;;14.80;;
7017;SDS011;3549;42.162;24.726;2023-07-13T01:09:19;20.58;;;15.30;;
7017;SDS011;3549;42.162;24.726;2023-07-13T01:11:45;20.63;;;15.30;;
7017;SDS011;3549;42.162;24.726;2023-07-13T01:14:11;22.58;;;15.77;;
7017;SDS011;3549;42.162;24.726;2023-07-13T01:16:37;19.60;;;15.30;;
7017;SDS011;3549;42.162;24.726;2023-07-13T01:19:06;18.85;;;14.98;;
7017;SDS011;3549;42.162;24.726;2023-07-13T01:21:39;19.57;;;15.03;;
7017;SDS011;3549;42.162;24.726;2023-07-13T01:24:07;19.37;;;15.17;;
7017;SDS011;3549;42.162;24.726;2023-07-13T01:26:33;18.83;;;14.40;;
7017;SDS011;3549;42.162;24.726;2023-07-13T01:28:59;18.77;;;14.63;;
7017;SDS011;3549;42.162;24.726;2023-07-13T01:31:24;18.03;;;14.13;;
7017;SDS011;3549;42.162;24.726;2023-07-13T01:33:49;17.93;;;14.17;;
7017;SDS011;3549;42.162;24.726;2023-07-13T01:36:15;17.73;;;13.80;;
7017;SDS011;3549;42.162;24.726;2023-07-13T01:38:40;17.53;;;14.23;;
7017;SDS011;3549;42.162;24.726;2023-07-13T01:41:06;18.67;;;15.33;;
7017;SDS011;3549;42.162;24.726;2023-07-13T01:43:32;21.50;;;15.73;;
7017;SDS011;3549;42.162;24.726;2023-07-13T01:45:57;19.00;;;15.00;;
7017;SDS011;3549;42.162;24.726;2023-07-13T01:48:23;24.47;;;15.80;;
7017;SDS011;3549;42.162;24.726;2023-07-13T01:50:48;22.93;;;15.70;;
7017;SDS011;3549;42.162;24.726;2023-07-13T01:53:14;21.10;;;15.80;;
7017;SDS011;3549;42.162;24.726;2023-07-13T01:55:39;21.97;;;16.30;;
7017;SDS011;3549;42.162;24.726;2023-07-13T01:58:05;22.37;;;16.27;;
7017;SDS011;3549;42.162;24.726;2023-07-13T02:00:31;20.30;;;15.60;;
7017;SDS011;3549;42.162;24.726;2023-07-13T02:02:56;17.50;;;15.47;;
7017;SDS011;3549;42.162;24.726;2023-07-13T02:05:22;18.83;;;15.70;;
7017;SDS011;3549;42.162;24.726;2023-07-13T02:07:48;22.97;;;15.83;;
7017;SDS011;3549;42.162;24.726;2023-07-13T02:10:14;18.93;;;15.27;;
7017;SDS011;3549;42.162;24.726;2023-07-13T02:12:40;18.73;;;15.03;;
7017;SDS011;3549;42.162;24.726;2023-07-13T02:15:06;19.87;;;15.63;;
7017;SDS011;3549;42.162;24.726;2023-07-13T02:17:33;16.80;;;14.63;;
7017;SDS011;3549;42.162;24.726;2023-07-13T02:19:59;18.70;;;15.30;;
7017;SDS011;3549;42.162;24.726;2023-07-13T02:22:25;19.23;;;16.00;;
7017;SDS011;3549;42.162;24.726;2023-07-13T02:24:50;17.87;;;15.43;;
7017;SDS011;3549;42.162;24.726;2023-07-13T02:27:16;19.70;;;16.40;;
7017;SDS011;3549;42.162;24.726;2023-07-13T02:29:41;17.47;;;15.23;;
7017;SDS011;3549;42.162;24.726;2023-07-13T02:32:07;20.57;;;15.80;;
7017;SDS011;3549;42.162;24.726;2023-07-13T02:34:32;19.90;;;15.70;;
7017;SDS011;3549;42.162;24.726;2023-07-13T02:36:58;18.33;;;15.37;;
7017;SDS011;3549;42.162;24.726;2023-07-13T02:39:23;17.97;;;14.77;;
7017;SDS011;3549;42.162;24.726;2023-07-13T02:41:49;20.17;;;15.30;;
7017;SDS011;3549;42.162;24.726;2023-07-13T02:44:14;19.27;;;15.13;;
7017;SDS011;3549;42.162;24.726;2023-07-13T02:46:40;17.87;;;14.63;;
7017;SDS011;3549;42.162;24.726;2023-07-13T02:49:06;18.00;;;14.93;;
7017;SDS011;3549;42.162;24.726;2023-07-13T02:51:31;17.27;;;14.93;;
7017;SDS011;3549;42.162;24.726;2023-07-13T02:53:59;18.10;;;14.87;;
7017;SDS011;3549;42.162;24.726;2023-07-13T02:56:26;19.87;;;14.83;;
7017;SDS011;3549;42.162;24.726;2023-07-13T02:58:53;17.73;;;15.03;;
7017;SDS011;3549;42.162;24.726;2023-07-13T03:01:20;17.50;;;14.47;;
7017;SDS011;3549;42.162;24.726;2023-07-13T03:03:46;18.90;;;15.50;;
7017;SDS011;3549;42.162;24.726;2023-07-13T03:06:12;18.97;;;14.93;;
7017;SDS011;3549;42.162;24.726;2023-07-13T03:08:38;18.20;;;14.50;;
7017;SDS011;3549;42.162;24.726;2023-07-13T03:11:05;19.67;;;14.37;;
7017;SDS011;3549;42.162;24.726;2023-07-13T03:13:33;18.97;;;14.77;;
7017;SDS011;3549;42.162;24.726;2023-07-13T03:15:59;17.70;;;14.03;;
7017;SDS011;3549;42.162;24.726;2023-07-13T03:18:26;19.13;;;14.20;;
7017;SDS011;3549;42.162;24.726;2023-07-13T03:20:52;18.33;;;14.30;;
7017;SDS011;3549;42.162;24.726;2023-07-13T03:23:18;21.57;;;14.63;;
7017;SDS011;3549;42.162;24.726;2023-07-13T03:25:44;23.03;;;14.60;;
7017;SDS011;3549;42.162;24.726;2023-07-13T03:28:10;19.30;;;14.30;;
7017;SDS011;3549;42.162;24.726;2023-07-13T03:30:36;21.63;;;14.53;;
7017;SDS011;3549;42.162;24.726;2023-07-13T03:33:02;19.80;;;14.50;;
7017;SDS011;3549;42.162;24.726;2023-07-13T03:35:27;28.10;;;14.90;;
7017;SDS011;3549;42.162;24.726;2023-07-13T03:37:53;30.87;;;14.60;;
7017;SDS011;3549;42.162;24.726;2023-07-13T03:40:18;29.23;;;15.07;;
7017;SDS011;3549;42.162;24.726;2023-07-13T03:42:46;26.30;;;15.47;;
7017;SDS011;3549;42.162;24.726;2023-07-13T03:45:11;29.83;;;15.03;;
7017;SDS011;3549;42.162;24.726;2023-07-13T03:47:36;23.60;;;15.00;;
7017;SDS011;3549;42.162;24.726;2023-07-13T03:50:02;26.10;;;15.27;;
7017;SDS011;3549;42.162;24.726;2023-07-13T03:52:28;19.17;;;15.17;;
7017;SDS011;3549;42.162;24.726;2023-07-13T03:54:54;21.57;;;15.13;;
7017;SDS011;3549;42.162;24.726;2023-07-13T03:57:19;21.43;;;14.93;;
7017;SDS011;3549;42.162;24.726;2023-07-13T03:59:44;18.80;;;15.50;;
7017;SDS011;3549;42.162;24.726;2023-07-13T04:02:10;22.77;;;15.27;;
7017;SDS011;3549;42.162;24.726;2023-07-13T04:04:35;22.07;;;15.50;;
7017;SDS011;3549;42.162;24.726;2023-07-13T04:07:01;25.23;;;17.97;;
7017;SDS011;3549;42.162;24.726;2023-07-13T04:09:26;25.27;;;19.23;;
7017;SDS011;3549;42.162;24.726;2023-07-13T04:11:52;25.70;;;18.40;;
7017;SDS011;3549;42.162;24.726;2023-07-13T04:14:17;24.07;;;17.40;;
7017;SDS011;3549;42.162;24.726;2023-07-13T04:16:43;23.33;;;17.73;;
7017;SDS011;3549;42.162;24.726;2023-07-13T04:19:08;24.90;;;17.23;;
7017;SDS011;3549;42.162;24.726;2023-07-13T04:21:35;22.77;;;16.63;;
7017;SDS011;3549;42.162;24.726;2023-07-13T04:24:01;21.83;;;17.13;;
7017;SDS011;3549;42.162;24.726;2023-07-13T04:26:28;27.30;;;18.60;;
7017;SDS011;3549;42.162;24.726;2023-07-13T04:28:54;25.07;;;17.90;;
7017;SDS011;3549;42.162;24.726;2023-07-13T04:31:20;24.30;;;17.43;;
7017;SDS011;3549;42.162;24.726;2023-07-13T04:33:49;25.80;;;17.60;;
7017;SDS011;3549;42.162;24.726;2023-07-13T04:36:15;24.70;;;18.17;;
7017;SDS011;3549;42.162;24.726;2023-07-13T04:38:41;21.73;;;17.07;;
7017;SDS011;3549;42.162;24.726;2023-07-13T04:41:08;24.50;;;18.10;;
7017;SDS011;3549;42.162;24.726;2023-07-13T04:43:34;24.40;;;17.87;;
7017;SDS011;3549;42.162;24.726;2023-07-13T04:46:04;30.23;;;18.23;;
7017;SDS011;3549;42.162;24.726;2023-07-13T04:48:30;28.10;;;18.00;;
7017;SDS011;3549;42.162;24.726;2023-07-13T04:50:57;27.17;;;18.45;;
7017;SDS011;3549;42.162;24.726;2023-07-13T04:53:23;29.37;;;18.97;;
7017;SDS011;3549;42.162;24.726;2023-07-13T04:55:49;28.65;;;18.88;;
7017;SDS011;3549;42.162;24.726;2023-07-13T04:58:14;30.10;;;18.85;;
7017;SDS011;3549;42.162;24.726;2023-07-13T05:00:39;24.77;;;18.02;;
7017;SDS011;3549;42.162;24.726;2023-07-13T05:03:05;25.15;;;18.38;;
7017;SDS011;3549;42.162;24.726;2023-07-13T05:05:30;25.15;;;18.73;;
7017;SDS011;3549;42.162;24.726;2023-07-13T05:07:56;25.13;;;18.98;;
7017;SDS011;3549;42.162;24.726;2023-07-13T05:10:21;25.90;;;19.05;;
7017;SDS011;3549;42.162;24.726;2023-07-13T05:12:48;26.25;;;18.90;;
7017;SDS011;3549;42.162;24.726;2023-07-13T05:15:13;25.33;;;18.40;;
7017;SDS011;3549;42.162;24.726;2023-07-13T05:17:39;26.33;;;19.25;;
7017;SDS011;3549;42.162;24.726;2023-07-13T05:20:05;25.30;;;18.75;;
7017;SDS011;3549;42.162;24.726;2023-07-13T05:22:32;23.50;;;17.75;;
7017;SDS011;3549;42.162;24.726;2023-07-13T05:24:59;24.45;;;18.33;;
7017;SDS011;3549;42.162;24.726;2023-07-13T05:27:25;25.67;;;17.42;;
7017;SDS011;3549;42.162;24.726;2023-07-13T05:29:51;25.17;;;18.60;;
7017;SDS011;3549;42.162;24.726;2023-07-13T05:32:17;25.48;;;18.10;;
7017;SDS011;3549;42.162;24.726;2023-07-13T05:34:42;21.92;;;18.20;;
7017;SDS011;3549;42.162;24.726;2023-07-13T05:37:08;22.55;;;17.30;;
7017;SDS011;3549;42.162;24.726;2023-07-13T05:39:33;23.27;;;17.52;;
7017;SDS011;3549;42.162;24.726;2023-07-13T05:41:59;21.35;;;17.00;;
7017;SDS011;3549;42.162;24.726;2023-07-13T05:44:24;24.55;;;18.23;;
7017;SDS011;3549;42.162;24.726;2023-07-13T05:46:49;23.30;;;17.67;;
7017;SDS011;3549;42.162;24.726;2023-07-13T05:49:15;22.20;;;16.73;;
7017;SDS011;3549;42.162;24.726;2023-07-13T05:51:40;26.10;;;17.27;;
7017;SDS011;3549;42.162;24.726;2023-07-13T05:54:06;22.45;;;17.05;;
7017;SDS011;3549;42.162;24.726;2023-07-13T05:56:31;20.83;;;16.45;;
7017;SDS011;3549;42.162;24.726;2023-07-13T05:58:56;21.70;;;16.40;;
7017;SDS011;3549;42.162;24.726;2023-07-13T06:01:22;26.27;;;16.73;;
7017;SDS011;3549;42.162;24.726;2023-07-13T06:03:48;29.08;;;16.75;;
7017;SDS011;3549;42.162;24.726;2023-07-13T06:06:14;26.00;;;16.70;;
7017;SDS011;3549;42.162;24.726;2023-07-13T06:08:40;19.27;;;17.20;;
7017;SDS011;3549;42.162;24.726;2023-07-13T06:11:17;23.55;;;17.95;;
7017;SDS011;3549;42.162;24.726;2023-07-13T06:13:44;21.40;;;17.30;;
7017;SDS011;3549;42.162;24.726;2023-07-13T06:16:09;21.70;;;17.60;;
7017;SDS011;3549;42.162;24.726;2023-07-13T06:18:36;20.67;;;16.35;;
7017;SDS011;3549;42.162;24.726;2023-07-13T06:21:08;20.75;;;16.75;;
7017;SDS011;3549;42.162;24.726;2023-07-13T06:23:35;23.65;;;16.27;;
7017;SDS011;3549;42.162;24.726;2023-07-13T06:26:00;18.75;;;15.63;;
7017;SDS011;3549;42.162;24.726;2023-07-13T06:28:26;20.63;;;15.20;;
7017;SDS011;3549;42.162;24.726;2023-07-13T06:30:51;19.27;;;15.60;;
7017;SDS011;3549;42.162;24.726;2023-07-13T06:33:16;17.33;;;15.00;;
7017;SDS011;3549;42.162;24.726;2023-07-13T06:35:42;19.65;;;15.15;;
7017;SDS011;3549;42.162;24.726;2023-07-13T06:38:07;21.65;;;14.63;;
7017;SDS011;3549;42.162;24.726;2023-07-13T06:40:33;25.95;;;15.10;;
7017;SDS011;3549;42.162;24.726;2023-07-13T06:42:58;19.50;;;14.10;;
7017;SDS011;3549;42.162;24.726;2023-07-13T06:45:24;24.05;;;15.10;;
7017;SDS011;3549;42.162;24.726;2023-07-13T06:47:49;19.20;;;14.85;;
7017;SDS011;3549;42.162;24.726;2023-07-13T06:50:15;18.55;;;14.57;;
7017;SDS011;3549;42.162;24.726;2023-07-13T06:52:40;17.75;;;14.15;;
7017;SDS011;3549;42.162;24.726;2023-07-13T06:55:06;19.08;;;14.25;;
7017;SDS011;3549;42.162;24.726;2023-07-13T06:57:31;19.42;;;14.82;;
7017;SDS011;3549;42.162;24.726;2023-07-13T06:59:57;16.75;;;14.50;;
7017;SDS011;3549;42.162;24.726;2023-07-13T07:02:22;17.65;;;14.85;;
7017;SDS011;3549;42.162;24.726;2023-07-13T07:04:48;17.75;;;14.18;;
7017;SDS011;3549;42.162;24.726;2023-07-13T07:07:13;16.27;;;14.13;;
7017;SDS011;3549;42.162;24.726;2023-07-13T07:09:38;15.18;;;13.57;;
7017;SDS011;3549;42.162;24.726;2023-07-13T07:12:04;15.85;;;13.77;;
7017;SDS011;3549;42.162;24.726;2023-07-13T07:14:29;18.30;;;14.38;;
7017;SDS011;3549;42.162;24.726;2023-07-13T07:16:55;16.30;;;13.70;;
7017;SDS011;3549;42.162;24.726;2023-07-13T07:19:21;16.85;;;15.05;;
7017;SDS011;3549;42.162;24.726;2023-07-13T07:21:46;17.40;;;14.00;;
7017;SDS011;3549;42.162;24.726;2023-07-13T07:24:12;18.90;;;14.70;;
7017;SDS011;3549;42.162;24.726;2023-07-13T07:26:37;19.23;;;14.48;;
7017;SDS011;3549;42.162;24.726;2023-07-13T07:29:02;16.15;;;13.35;;
7017;SDS011;3549;42.162;24.726;2023-07-13T07:31:28;16.08;;;13.43;;
7017;SDS011;3549;42.162;24.726;2023-07-13T07:33:53;17.95;;;13.23;;
7017;SDS011;3549;42.162;24.726;2023-07-13T07:36:19;16.13;;;14.43;;
7017;SDS011;3549;42.162;24.726;2023-07-13T07:38:44;16.00;;;13.32;;
7017;SDS011;3549;42.162;24.726;2023-07-13T07:41:10;14.73;;;13.15;;
7017;SDS011;3549;42.162;24.726;2023-07-13T07:43:35;16.23;;;13.55;;
7017;SDS011;3549;42.162;24.726;2023-07-13T07:46:01;15.40;;;12.52;;
7017;SDS011;3549;42.162;24.726;2023-07-13T07:48:27;14.93;;;13.20;;
7017;SDS011;3549;42.162;24.726;2023-07-13T07:50:52;17.77;;;13.32;;
7017;SDS011;3549;42.162;24.726;2023-07-13T07:53:18;16.80;;;13.48;;
7017;SDS011;3549;42.162;24.726;2023-07-13T07:55:43;15.15;;;13.00;;
7017;SDS011;3549;42.162;24.726;2023-07-13T07:58:10;16.40;;;13.32;;
7017;SDS011;3549;42.162;24.726;2023-07-13T08:00:35;16.33;;;13.77;;
7017;SDS011;3549;42.162;24.726;2023-07-13T08:03:01;15.85;;;12.75;;
7017;SDS011;3549;42.162;24.726;2023-07-13T08:05:27;16.05;;;13.27;;
7017;SDS011;3549;42.162;24.726;2023-07-13T08:07:53;15.30;;;13.40;;
7017;SDS011;3549;42.162;24.726;2023-07-13T08:10:18;16.58;;;13.48;;
7017;SDS011;3549;42.162;24.726;2023-07-13T08:12:44;14.63;;;13.10;;
7017;SDS011;3549;42.162;24.726;2023-07-13T08:15:11;17.05;;;13.95;;
7017;SDS011;3549;42.162;24.726;2023-07-13T08:17:38;15.55;;;13.75;;
7017;SDS011;3549;42.162;24.726;2023-07-13T08:20:03;15.20;;;12.80;;
7017;SDS011;3549;42.162;24.726;2023-07-13T08:22:29;17.05;;;12.90;;
7017;SDS011;3549;42.162;24.726;2023-07-13T08:24:55;15.10;;;12.73;;
7017;SDS011;3549;42.162;24.726;2023-07-13T08:27:21;14.80;;;13.30;;
7017;SDS011;3549;42.162;24.726;2023-07-13T08:29:47;17.08;;;12.80;;
7017;SDS011;3549;42.162;24.726;2023-07-13T08:32:14;14.18;;;12.77;;
7017;SDS011;3549;42.162;24.726;2023-07-13T08:34:39;28.90;;;13.65;;
7017;SDS011;3549;42.162;24.726;2023-07-13T08:37:05;45.38;;;14.93;;
7017;SDS011;3549;42.162;24.726;2023-07-13T08:39:31;15.93;;;13.20;;
7017;SDS011;3549;42.162;24.726;2023-07-13T08:42:00;18.25;;;13.55;;
7017;SDS011;3549;42.162;24.726;2023-07-13T08:47:46;16.27;;;12.52;;
7017;SDS011;3549;42.162;24.726;2023-07-13T08:50:18;14.77;;;12.45;;
7017;SDS011;3549;42.162;24.726;2023-07-13T08:52:47;18.60;;;11.82;;
7017;SDS011;3549;42.162;24.726;2023-07-13T08:55:20;12.57;;;11.27;;
7017;SDS011;3549;42.162;24.726;2023-07-13T08:58:02;17.48;;;11.15;;
7017;SDS011;3549;42.162;24.726;2023-07-13T09:00:37;14.27;;;10.82;;
7017;SDS011;3549;42.162;24.726;2023-07-13T09:03:26;14.00;;;10.75;;
7017;SDS011;3549;42.162;24.726;2023-07-13T09:05:59;15.52;;;10.63;;
7017;SDS011;3549;42.162;24.726;2023-07-13T09:14:11;13.23;;;10.30;;
7017;SDS011;3549;42.162;24.726;2023-07-13T09:16:55;15.05;;;9.82;;
7017;SDS011;3549;42.162;24.726;2023-07-13T09:19:23;12.85;;;9.93;;
7017;SDS011;3549;42.162;24.726;2023-07-13T09:21:53;17.77;;;9.95;;
7017;SDS011;3549;42.162;24.726;2023-07-13T09:24:37;13.20;;;10.77;;
7017;SDS011;3549;42.162;24.726;2023-07-13T09:27:16;10.95;;;9.38;;
7017;SDS011;3549;42.162;24.726;2023-07-13T09:29:47;10.38;;;9.20;;
7017;SDS011;3549;42.162;24.726;2023-07-13T09:32:18;13.52;;;10.60;;
7017;SDS011;3549;42.162;24.726;2023-07-13T09:34:51;11.52;;;9.90;;
7017;SDS011;3549;42.162;24.726;2023-07-13T09:37:21;12.77;;;9.73;;
7017;SDS011;3549;42.162;24.726;2023-07-13T09:39:53;10.63;;;9.50;;
7017;SDS011;3549;42.162;24.726;2023-07-13T09:42:22;11.30;;;9.68;;
7017;SDS011;3549;42.162;24.726;2023-07-13T09:47:22;10.63;;;9.05;;
7017;SDS011;3549;42.162;24.726;2023-07-13T09:49:55;13.30;;;9.20;;
7017;SDS011;3549;42.162;24.726;2023-07-13T09:52:21;12.65;;;8.73;;
7017;SDS011;3549;42.162;24.726;2023-07-13T09:54:48;12.05;;;8.77;;
7017;SDS011;3549;42.162;24.726;2023-07-13T09:57:18;11.50;;;8.50;;
7017;SDS011;3549;42.162;24.726;2023-07-13T09:59:48;11.30;;;8.32;;
7017;SDS011;3549;42.162;24.726;2023-07-13T10:02:23;11.13;;;8.27;;
7017;SDS011;3549;42.162;24.726;2023-07-13T10:04:57;9.98;;;8.07;;
7017;SDS011;3549;42.162;24.726;2023-07-13T10:07:25;9.90;;;8.25;;
7017;SDS011;3549;42.162;24.726;2023-07-13T10:09:52;9.27;;;7.90;;
7017;SDS011;3549;42.162;24.726;2023-07-13T10:12:21;9.27;;;8.20;;
7017;SDS011;3549;42.162;24.726;2023-07-13T10:14:49;9.38;;;8.25;;
7017;SDS011;3549;42.162;24.726;2023-07-13T10:17:18;9.45;;;7.88;;
7017;SDS011;3549;42.162;24.726;2023-07-13T10:19:50;10.15;;;8.93;;
7017;SDS011;3549;42.162;24.726;2023-07-13T10:25:11;9.52;;;8.13;;
7017;SDS011;3549;42.162;24.726;2023-07-13T10:27:39;12.18;;;8.43;;
7017;SDS011;3549;42.162;24.726;2023-07-13T10:32:44;11.73;;;8.20;;
7017;SDS011;3549;42.162;24.726;2023-07-13T10:35:12;9.13;;;8.23;;
7017;SDS011;3549;42.162;24.726;2023-07-13T10:40:45;9.75;;;8.40;;
7017;SDS011;3549;42.162;24.726;2023-07-13T10:43:20;14.07;;;8.43;;
7017;SDS011;3549;42.162;24.726;2023-07-13T10:45:52;10.77;;;8.20;;
7017;SDS011;3549;42.162;24.726;2023-07-13T10:48:19;10.90;;;8.07;;
7017;SDS011;3549;42.162;24.726;2023-07-13T10:50:48;9.82;;;7.90;;
7017;SDS011;3549;42.162;24.726;2023-07-13T10:58:44;10.90;;;7.07;;
7017;SDS011;3549;42.162;24.726;2023-07-13T11:01:17;8.38;;;6.88;;
7017;SDS011;3549;42.162;24.726;2023-07-13T11:08:54;10.38;;;6.57;;
7017;SDS011;3549;42.162;24.726;2023-07-13T11:18:47;8.60;;;6.68;;
7017;SDS011;3549;42.162;24.726;2023-07-13T11:21:18;11.25;;;7.07;;
7017;SDS011;3549;42.162;24.726;2023-07-13T11:31:56;7.85;;;7.00;;
7017;SDS011;3549;42.162;24.726;2023-07-13T11:34:36;10.52;;;7.43;;
7017;SDS011;3549;42.162;24.726;2023-07-13T11:37:03;10.65;;;7.28;;
7017;SDS011;3549;42.162;24.726;2023-07-13T11:39:37;10.18;;;7.00;;
7017;SDS011;3549;42.162;24.726;2023-07-13T11:42:08;13.48;;;6.70;;
7017;SDS011;3549;42.162;24.726;2023-07-13T11:44:40;7.45;;;6.25;;
7017;SDS011;3549;42.162;24.726;2023-07-13T11:47:17;8.13;;;6.47;;
7017;SDS011;3549;42.162;24.726;2023-07-13T11:49:48;9.07;;;6.53;;
7017;SDS011;3549;42.162;24.726;2023-07-13T11:52:17;7.10;;;6.40;;
7017;SDS011;3549;42.162;24.726;2023-07-13T11:54:50;10.63;;;6.70;;
7017;SDS011;3549;42.162;24.726;2023-07-13T11:59:56;10.32;;;6.90;;
7017;SDS011;3549;42.162;24.726;2023-07-13T12:05:19;13.77;;;6.57;;
7017;SDS011;3549;42.162;24.726;2023-07-13T12:07:46;11.15;;;6.60;;
7017;SDS011;3549;42.162;24.726;2023-07-13T12:10:23;11.48;;;6.60;;
7017;SDS011;3549;42.162;24.726;2023-07-13T12:12:59;10.40;;;6.88;;
7017;SDS011;3549;42.162;24.726;2023-07-13T12:15:28;8.23;;;6.28;;
7017;SDS011;3549;42.162;24.726;2023-07-13T12:18:01;10.75;;;7.05;;
7017;SDS011;3549;42.162;24.726;2023-07-13T12:20:27;8.48;;;6.45;;
7017;SDS011;3549;42.162;24.726;2023-07-13T12:23:00;7.30;;;6.22;;
7017;SDS011;3549;42.162;24.726;2023-07-13T12:25:27;9.90;;;6.32;;
7017;SDS011;3549;42.162;24.726;2023-07-13T12:27:53;7.88;;;6.38;;
7017;SDS011;3549;42.162;24.726;2023-07-13T12:32:59;11.05;;;6.93;;
7017;SDS011;3549;42.162;24.726;2023-07-13T12:35:29;8.93;;;6.47;;
7017;SDS011;3549;42.162;24.726;2023-07-13T12:37:56;10.65;;;6.82;;
7017;SDS011;3549;42.162;24.726;2023-07-13T12:40:27;10.63;;;6.22;;
7017;SDS011;3549;42.162;24.726;2023-07-13T12:42:57;10.90;;;6.53;;
7017;SDS011;3549;42.162;24.726;2023-07-13T12:45:27;8.77;;;6.25;;
7017;SDS011;3549;42.162;24.726;2023-07-13T12:48:14;9.63;;;6.55;;
7017;SDS011;3549;42.162;24.726;2023-07-13T12:50:41;8.48;;;6.40;;
7017;SDS011;3549;42.162;24.726;2023-07-13T12:53:14;7.90;;;6.68;;
7017;SDS011;3549;42.162;24.726;2023-07-13T12:55:54;12.27;;;7.15;;
7017;SDS011;3549;42.162;24.726;2023-07-13T12:58:27;11.82;;;6.72;;
7017;SDS011;3549;42.162;24.726;2023-07-13T13:00:56;9.70;;;6.65;;
7017;SDS011;3549;42.162;24.726;2023-07-13T13:03:26;10.60;;;6.50;;
7017;SDS011;3549;42.162;24.726;2023-07-13T13:06:05;11.10;;;6.30;;
7017;SDS011;3549;42.162;24.726;2023-07-13T13:08:56;11.20;;;6.65;;
7017;SDS011;3549;42.162;24.726;2023-07-13T13:11:28;10.80;;;6.78;;
7017;SDS011;3549;42.162;24.726;2023-07-13T13:13:55;10.90;;;6.88;;
7017;SDS011;3549;42.162;24.726;2023-07-13T13:16:26;10.70;;;6.50;;
7017;SDS011;3549;42.162;24.726;2023-07-13T13:19:01;12.50;;;6.22;;
7017;SDS011;3549;42.162;24.726;2023-07-13T13:21:42;13.73;;;6.00;;
7017;SDS011;3549;42.162;24.726;2023-07-13T13:24:16;12.23;;;5.70;;
7017;SDS011;3549;42.162;24.726;2023-07-13T13:26:45;13.52;;;5.65;;
7017;SDS011;3549;42.162;24.726;2023-07-13T13:29:11;12.18;;;5.35;;
7017;SDS011;3549;42.162;24.726;2023-07-13T13:31:39;14.02;;;6.40;;
7017;SDS011;3549;42.162;24.726;2023-07-13T13:34:07;12.75;;;5.95;;
7017;SDS011;3549;42.162;24.726;2023-07-13T13:36:34;11.90;;;7.40;;
7017;SDS011;3549;42.162;24.726;2023-07-13T13:38:59;13.48;;;8.25;;
7017;SDS011;3549;42.162;24.726;2023-07-13T13:41:27;11.77;;;7.00;;
7017;SDS011;3549;42.162;24.726;2023-07-13T13:43:52;13.88;;;7.32;;
7017;SDS011;3549;42.162;24.726;2023-07-13T13:46:18;15.25;;;7.22;;
7017;SDS011;3549;42.162;24.726;2023-07-13T13:48:47;11.57;;;7.13;;
7017;SDS011;3549;42.162;24.726;2023-07-13T13:53:46;9.63;;;7.10;;
7017;SDS011;3549;42.162;24.726;2023-07-13T13:56:13;10.77;;;7.22;;
7017;SDS011;3549;42.162;24.726;2023-07-13T13:58:42;10.55;;;6.70;;
7017;SDS011;3549;42.162;24.726;2023-07-13T14:01:18;13.60;;;6.28;;
7017;SDS011;3549;42.162;24.726;2023-07-13T14:03:46;13.70;;;7.28;;
7017;SDS011;3549;42.162;24.726;2023-07-13T14:06:14;15.05;;;6.90;;
7017;SDS011;3549;42.162;24.726;2023-07-13T14:08:41;11.55;;;7.15;;
7017;SDS011;3549;42.162;24.726;2023-07-13T14:11:10;14.43;;;7.45;;
7017;SDS011;3549;42.162;24.726;2023-07-13T14:13:38;12.63;;;7.13;;
7017;SDS011;3549;42.162;24.726;2023-07-13T14:16:11;10.63;;;7.32;;
7017;SDS011;3549;42.162;24.726;2023-07-13T14:18:40;10.43;;;6.97;;
7017;SDS011;3549;42.162;24.726;2023-07-13T14:21:10;9.40;;;7.05;;
7017;SDS011;3549;42.162;24.726;2023-07-13T14:23:40;12.57;;;7.15;;
7017;SDS011;3549;42.162;24.726;2023-07-13T14:26:22;10.32;;;7.15;;
7017;SDS011;3549;42.162;24.726;2023-07-13T14:28:50;12.38;;;7.72;;
7017;SDS011;3549;42.162;24.726;2023-07-13T14:31:18;12.57;;;7.20;;
7017;SDS011;3549;42.162;24.726;2023-07-13T14:33:44;13.52;;;7.72;;
7017;SDS011;3549;42.162;24.726;2023-07-13T14:38:56;11.77;;;7.85;;
7017;SDS011;3549;42.162;24.726;2023-07-13T14:41:23;9.48;;;6.90;;
7017;SDS011;3549;42.162;24.726;2023-07-13T14:43:49;11.57;;;8.00;;
7017;SDS011;3549;42.162;24.726;2023-07-13T14:52:12;11.13;;;7.75;;
7017;SDS011;3549;42.162;24.726;2023-07-13T14:54:40;13.27;;;7.93;;
7017;SDS011;3549;42.162;24.726;2023-07-13T14:57:12;14.57;;;8.18;;
7017;SDS011;3549;42.162;24.726;2023-07-13T14:59:38;10.15;;;7.65;;
7017;SDS011;3549;42.162;24.726;2023-07-13T15:02:10;12.73;;;7.57;;
7017;SDS011;3549;42.162;24.726;2023-07-13T15:04:41;16.45;;;7.78;;
7017;SDS011;3549;42.162;24.726;2023-07-13T15:07:07;17.38;;;7.80;;
7017;SDS011;3549;42.162;24.726;2023-07-13T15:09:35;11.90;;;7.80;;
7017;SDS011;3549;42.162;24.726;2023-07-13T15:12:00;12.65;;;7.55;;
7017;SDS011;3549;42.162;24.726;2023-07-13T15:14:26;14.30;;;8.18;;
7017;SDS011;3549;42.162;24.726;2023-07-13T15:16:53;11.07;;;7.63;;
7017;SDS011;3549;42.162;24.726;2023-07-13T15:19:20;11.45;;;7.75;;
7017;SDS011;3549;42.162;24.726;2023-07-13T15:21:48;13.73;;;7.68;;
7017;SDS011;3549;42.162;24.726;2023-07-13T15:24:14;15.30;;;7.55;;
7017;SDS011;3549;42.162;24.726;2023-07-13T15:26:40;13.10;;;8.02;;
7017;SDS011;3549;42.162;24.726;2023-07-13T15:29:10;14.93;;;7.65;;
7017;SDS011;3549;42.162;24.726;2023-07-13T15:31:36;13.48;;;7.40;;
7017;SDS011;3549;42.162;24.726;2023-07-13T15:34:04;13.98;;;7.70;;
7017;SDS011;3549;42.162;24.726;2023-07-13T15:36:37;13.23;;;7.32;;
7017;SDS011;3549;42.162;24.726;2023-07-13T15:39:03;11.65;;;7.10;;
7017;SDS011;3549;42.162;24.726;2023-07-13T15:41:28;11.00;;;7.55;;
7017;SDS011;3549;42.162;24.726;2023-07-13T15:43:55;13.68;;;6.93;;
7017;SDS011;3549;42.162;24.726;2023-07-13T15:46:26;17.08;;;7.90;;
7017;SDS011;3549;42.162;24.726;2023-07-13T15:48:53;18.65;;;8.00;;